Time;durP1;ratioP1;P1;durP2;ratioP2;P2;SDS_P1;SDS_P2;PMS_P1;PMS_P2;Temp;Humidity;BMP_temperature;BMP_pressure;BME280_temperature;BME280_humidity;BME280_pressure;Samples;Min_cycle;Max_cycle;Signal;HPM_P1;HPM_P2
2024/03/03 00:00:47;;;;;;;30.15;16.98;;;;;;;;;;4915305;29;20122;-84
2024/03/03 00:03:32;;;;;;;27.75;15.93;;;;;;;;;;4929543;29;20055;-85
2024/03/03 00:06:17;;;;;;;29.05;17.95;;;;;;;;;;4916207;29;20492;-85
2024/03/03 00:09:05;;;;;;;29.83;17.98;;;;;;;;;;4916264;29;20072;-86
2024/03/03 00:11:50;;;;;;;31.65;17.10;;;;;;;;;;4916583;29;20027;-85
2024/03/03 00:14:36;;;;;;;28.90;16.90;;;;;;;;;;4911252;29;20387;-85
2024/03/03 00:17:21;;;;;;;26.17;16.73;;;;;;;;;;4916239;29;20070;-84
2024/03/03 00:20:07;;;;;;;28.52;17.15;;;;;;;;;;4918200;29;20050;-87
2024/03/03 00:22:52;;;;;;;28.92;16.95;;;;;;;;;;4917025;29;20035;-86
2024/03/03 00:25:38;;;;;;;28.30;18.10;;;;;;;;;;4916094;29;20031;-87
2024/03/03 00:28:24;;;;;;;28.77;16.55;;;;;;;;;;4915784;29;20034;-85
2024/03/03 00:31:09;;;;;;;33.15;18.27;;;;;;;;;;4924093;29;20365;-84
2024/03/03 00:33:54;;;;;;;31.77;17.88;;;;;;;;;;4916065;29;20151;-86
2024/03/03 00:36:39;;;;;;;31.17;17.50;;;;;;;;;;4929316;29;20039;-85
2024/03/03 00:39:25;;;;;;;28.02;18.02;;;;;;;;;;4915385;29;20060;-85
2024/03/03 00:42:10;;;;;;;27.90;17.63;;;;;;;;;;4915151;29;20028;-86
2024/03/03 00:44:56;;;;;;;34.25;19.52;;;;;;;;;;4902852;29;20475;-86
2024/03/03 00:47:42;;;;;;;29.85;17.90;;;;;;;;;;4937893;29;20518;-87
2024/03/03 00:50:27;;;;;;;28.90;17.83;;;;;;;;;;4948113;29;20039;-86
2024/03/03 00:53:13;;;;;;;30.05;17.23;;;;;;;;;;4947517;29;20031;-85
2024/03/03 00:55:58;;;;;;;27.10;15.57;;;;;;;;;;4943761;29;20065;-85
2024/03/03 00:58:43;;;;;;;29.73;17.33;;;;;;;;;;4916321;29;20024;-85
2024/03/03 01:01:28;;;;;;;29.85;18.50;;;;;;;;;;4916054;29;20020;-85
2024/03/03 01:04:14;;;;;;;31.45;18.50;;;;;;;;;;4913597;29;20043;-85
2024/03/03 01:06:57;;;;;;;28.95;17.25;;;;;;;;;;4929902;29;20086;-85
2024/03/03 01:09:41;;;;;;;32.42;19.67;;;;;;;;;;4929781;29;20170;-85
2024/03/03 01:12:27;;;;;;;29.90;18.35;;;;;;;;;;4915272;29;20055;-85
2024/03/03 01:15:12;;;;;;;28.95;16.58;;;;;;;;;;4914802;29;20031;-85
2024/03/03 01:17:58;;;;;;;28.42;18.27;;;;;;;;;;4929038;29;20138;-85
2024/03/03 01:20:43;;;;;;;31.17;18.95;;;;;;;;;;4914060;29;20043;-85
2024/03/03 01:23:28;;;;;;;31.27;18.95;;;;;;;;;;4914870;29;20024;-85
2024/03/03 01:26:13;;;;;;;28.10;18.23;;;;;;;;;;4927690;29;20058;-86
2024/03/03 01:28:59;;;;;;;32.47;19.60;;;;;;;;;;4915125;29;20375;-84
2024/03/03 01:31:45;;;;;;;28.15;17.65;;;;;;;;;;4915394;29;20118;-84
2024/03/03 01:34:30;;;;;;;29.80;18.10;;;;;;;;;;4898587;29;20124;-84
2024/03/03 01:37:17;;;;;;;27.05;17.45;;;;;;;;;;4927586;29;20032;-84
2024/03/03 01:40:04;;;;;;;29.48;17.73;;;;;;;;;;4914085;29;20028;-84
2024/03/03 01:42:53;;;;;;;33.90;18.45;;;;;;;;;;4927988;29;20432;-85
2024/03/03 01:45:39;;;;;;;;;;;;;;;;;;4914903;29;20031;-86
2024/03/03 01:48:24;;;;;;;28.80;17.98;;;;;;;;;;4914872;29;19910;-85
2024/03/03 01:51:10;;;;;;;31.17;18.73;;;;;;;;;;4915008;29;20038;-85
2024/03/03 01:53:56;;;;;;;30.30;18.80;;;;;;;;;;4895762;29;20072;-85
2024/03/03 01:56:45;;;;;;;29.92;18.60;;;;;;;;;;4906680;29;20503;-85
2024/03/03 01:59:31;;;;;;;29.98;18.30;;;;;;;;;;4913938;29;20043;-85
2024/03/03 02:02:17;;;;;;;31.73;19.45;;;;;;;;;;4915181;29;20034;-85
2024/03/03 02:05:03;;;;;;;32.63;18.73;;;;;;;;;;4915385;29;20032;-85
2024/03/03 02:07:49;;;;;;;30.83;21.13;;;;;;;;;;4907964;29;20028;-85
2024/03/03 02:10:35;;;;;;;31.83;17.67;;;;;;;;;;4895624;29;20075;-85
2024/03/03 02:13:20;;;;;;;30.13;19.02;;;;;;;;;;4915827;29;20051;-85
2024/03/03 02:16:06;;;;;;;30.30;19.45;;;;;;;;;;4916267;29;20399;-85
2024/03/03 02:18:51;;;;;;;28.13;19.08;;;;;;;;;;4916613;29;20031;-85
2024/03/03 02:21:37;;;;;;;31.52;20.80;;;;;;;;;;4918571;29;20023;-83
2024/03/03 02:24:22;;;;;;;33.85;20.00;;;;;;;;;;4918105;29;20486;-83
2024/03/03 02:27:09;;;;;;;29.45;18.67;;;;;;;;;;4926405;29;20530;-84
2024/03/03 02:29:54;;;;;;;33.05;18.65;;;;;;;;;;4938965;29;20039;-85
2024/03/03 02:32:39;;;;;;;35.88;20.20;;;;;;;;;;4931515;29;20435;-85
2024/03/03 02:35:24;;;;;;;30.80;19.27;;;;;;;;;;4923925;29;20047;-84
2024/03/03 02:38:10;;;;;;;31.73;20.52;;;;;;;;;;4955075;28;20086;-85
2024/03/03 02:40:56;;;;;;;32.90;20.52;;;;;;;;;;4947448;28;20395;-86
2024/03/03 02:43:41;;;;;;;37.15;22.15;;;;;;;;;;4906049;29;20032;-85
2024/03/03 02:46:26;;;;;;;32.70;19.17;;;;;;;;;;4940378;29;20055;-84
2024/03/03 02:49:11;;;;;;;33.17;19.20;;;;;;;;;;4916331;29;20107;-85
2024/03/03 02:51:57;;;;;;;37.20;19.67;;;;;;;;;;4933520;29;20027;-86
2024/03/03 02:54:42;;;;;;;32.10;18.85;;;;;;;;;;4938047;29;20050;-85
2024/03/03 02:57:28;;;;;;;34.03;18.60;;;;;;;;;;4933744;29;20001;-84
2024/03/03 03:00:16;;;;;;;31.25;19.30;;;;;;;;;;4909106;29;20126;-85
2024/03/03 03:03:02;;;;;;;35.33;20.15;;;;;;;;;;4914796;29;20103;-85
2024/03/03 03:05:47;;;;;;;34.78;20.05;;;;;;;;;;4920900;29;20035;-86
2024/03/03 03:08:32;;;;;;;32.05;19.40;;;;;;;;;;4929899;29;20023;-85
2024/03/03 03:11:18;;;;;;;32.53;19.75;;;;;;;;;;4921414;29;20114;-85
2024/03/03 03:14:03;;;;;;;35.25;20.88;;;;;;;;;;4923356;29;20040;-85
2024/03/03 03:16:48;;;;;;;30.90;18.77;;;;;;;;;;4928131;29;20110;-85
2024/03/03 03:19:34;;;;;;;37.03;20.30;;;;;;;;;;4938941;29;20038;-85
2024/03/03 03:22:19;;;;;;;30.38;19.48;;;;;;;;;;4941495;29;20034;-85
2024/03/03 03:25:05;;;;;;;33.17;20.98;;;;;;;;;;4922438;29;20200;-85
2024/03/03 03:27:50;;;;;;;30.85;20.25;;;;;;;;;;4923631;29;20078;-85
2024/03/03 03:30:35;;;;;;;40.97;21.38;;;;;;;;;;4922685;29;20039;-84
2024/03/03 03:33:20;;;;;;;34.90;21.73;;;;;;;;;;4934962;29;20048;-85
2024/03/03 03:36:09;;;;;;;37.80;21.20;;;;;;;;;;4924322;29;20582;-85
2024/03/03 03:38:54;;;;;;;34.38;20.67;;;;;;;;;;4920769;29;20032;-85
2024/03/03 03:41:46;;;;;;;33.42;19.35;;;;;;;;;;4919832;29;20043;-85
2024/03/03 03:44:32;;;;;;;30.70;18.85;;;;;;;;;;4916513;29;20071;-85
2024/03/03 03:47:17;;;;;;;35.35;20.70;;;;;;;;;;4916347;29;20028;-85
2024/03/03 03:50:02;;;;;;;31.70;19.65;;;;;;;;;;4933085;29;20040;-85
2024/03/03 03:52:47;;;;;;;36.97;20.88;;;;;;;;;;4920757;29;20036;-85
2024/03/03 03:55:33;;;;;;;34.17;20.00;;;;;;;;;;4919387;29;20118;-85
2024/03/03 03:58:18;;;;;;;31.48;17.67;;;;;;;;;;4919182;29;20114;-85
2024/03/03 04:01:03;;;;;;;31.30;20.95;;;;;;;;;;4918402;29;20036;-85
2024/03/03 04:03:48;;;;;;;31.17;18.77;;;;;;;;;;4927483;29;20024;-85
2024/03/03 04:06:34;;;;;;;33.35;20.02;;;;;;;;;;4917849;29;20114;-85
2024/03/03 04:09:20;;;;;;;35.72;20.25;;;;;;;;;;4916137;29;20545;-85
2024/03/03 04:12:05;;;;;;;30.52;17.98;;;;;;;;;;4917349;29;20035;-84
2024/03/03 04:14:50;;;;;;;33.67;17.70;;;;;;;;;;4927936;29;20066;-84
2024/03/03 04:17:39;;;;;;;34.67;20.80;;;;;;;;;;4916006;29;20038;-85
2024/03/03 04:20:27;;;;;;;33.70;20.75;;;;;;;;;;4916401;29;20550;-86
2024/03/03 04:23:12;;;;;;;36.60;20.42;;;;;;;;;;4919937;29;20418;-85
2024/03/03 04:25:58;;;;;;;35.72;20.08;;;;;;;;;;4940039;29;20066;-85
2024/03/03 04:28:45;;;;;;;34.50;21.08;;;;;;;;;;4916046;29;20078;-86
2024/03/03 04:31:30;;;;;;;34.13;20.38;;;;;;;;;;4916405;29;20057;-86
2024/03/03 04:34:15;;;;;;;36.75;20.55;;;;;;;;;;4915844;29;20093;-85
2024/03/03 04:37:00;;;;;;;33.50;21.27;;;;;;;;;;4929189;29;20645;-85
2024/03/03 04:39:46;;;;;;;38.13;22.90;;;;;;;;;;4915252;29;20037;-85
2024/03/03 04:42:31;;;;;;;32.88;20.15;;;;;;;;;;4916254;29;20051;-85
2024/03/03 04:45:16;;;;;;;33.97;19.48;;;;;;;;;;4928789;29;20479;-85
2024/03/03 04:48:02;;;;;;;33.10;19.88;;;;;;;;;;4915188;29;20407;-85
2024/03/03 04:50:47;;;;;;;37.00;21.42;;;;;;;;;;4915616;29;20035;-86
2024/03/03 04:53:33;;;;;;;40.55;20.98;;;;;;;;;;4928972;29;20042;-86
2024/03/03 04:56:18;;;;;;;34.08;20.65;;;;;;;;;;4915814;29;20440;-85
2024/03/03 04:59:03;;;;;;;35.80;21.45;;;;;;;;;;4915613;29;20489;-85
2024/03/03 05:01:49;;;;;;;33.72;21.90;;;;;;;;;;4915464;29;21037;-85
2024/03/03 05:04:34;;;;;;;34.15;20.67;;;;;;;;;;4924102;29;20026;-85
2024/03/03 05:07:19;;;;;;;39.13;21.85;;;;;;;;;;4899279;29;20027;-85
2024/03/03 05:10:06;;;;;;;34.88;21.50;;;;;;;;;;4914051;29;20119;-86
2024/03/03 05:12:51;;;;;;;35.00;20.35;;;;;;;;;;4896975;29;20039;-85
2024/03/03 05:15:37;;;;;;;39.53;23.23;;;;;;;;;;4909500;29;20115;-85
2024/03/03 05:18:22;;;;;;;39.63;21.92;;;;;;;;;;4915363;29;20515;-85
2024/03/03 05:21:07;;;;;;;32.03;20.65;;;;;;;;;;4915612;29;20031;-86
2024/03/03 05:23:56;;;;;;;36.88;21.17;;;;;;;;;;4927431;29;20027;-86
2024/03/03 05:26:42;;;;;;;35.35;21.60;;;;;;;;;;4916533;29;20502;-86
2024/03/03 05:29:28;;;;;;;40.72;22.40;;;;;;;;;;4901925;29;20082;-85
2024/03/03 05:32:13;;;;;;;37.47;23.42;;;;;;;;;;4915243;29;20031;-86
2024/03/03 05:34:59;;;;;;;36.60;21.05;;;;;;;;;;4914673;29;20040;-85
2024/03/03 05:37:44;;;;;;;37.35;20.88;;;;;;;;;;4914778;29;20024;-85
2024/03/03 05:40:30;;;;;;;34.65;20.42;;;;;;;;;;4902091;29;20507;-86
2024/03/03 05:43:15;;;;;;;41.63;22.75;;;;;;;;;;4913714;29;20027;-85
2024/03/03 05:46:01;;;;;;;36.67;20.98;;;;;;;;;;4928099;29;20050;-85
2024/03/03 05:48:46;;;;;;;39.67;22.70;;;;;;;;;;4914409;29;20020;-85
2024/03/03 05:51:32;;;;;;;35.38;20.98;;;;;;;;;;4915214;29;20031;-86
2024/03/03 05:54:17;;;;;;;36.25;21.27;;;;;;;;;;4915263;29;20027;-85
2024/03/03 05:57:02;;;;;;;36.25;21.58;;;;;;;;;;4914353;29;20039;-85
2024/03/03 05:59:48;;;;;;;32.25;20.58;;;;;;;;;;4910631;29;20483;-85
2024/03/03 06:02:33;;;;;;;37.75;21.92;;;;;;;;;;4915347;29;20111;-85
2024/03/03 06:05:19;;;;;;;34.65;21.17;;;;;;;;;;4915475;29;20086;-85
2024/03/03 06:08:04;;;;;;;33.83;21.13;;;;;;;;;;4915088;29;20067;-85
2024/03/03 06:10:49;;;;;;;33.83;18.83;;;;;;;;;;4914553;29;20071;-85
2024/03/03 06:13:35;;;;;;;35.13;22.10;;;;;;;;;;4915109;29;20034;-85
2024/03/03 06:16:20;;;;;;;35.22;18.55;;;;;;;;;;4925952;29;20453;-85
2024/03/03 06:19:06;;;;;;;33.42;20.90;;;;;;;;;;4927554;29;20031;-85
2024/03/03 06:21:52;;;;;;;36.40;20.90;;;;;;;;;;4928039;29;20523;-85
2024/03/03 06:24:38;;;;;;;39.67;21.25;;;;;;;;;;4915346;29;20049;-86
2024/03/03 06:27:23;;;;;;;41.38;22.65;;;;;;;;;;4914631;29;20031;-85
2024/03/03 06:30:08;;;;;;;35.22;20.90;;;;;;;;;;4914623;29;20119;-86
2024/03/03 06:32:54;;;;;;;33.47;19.27;;;;;;;;;;4919141;29;20035;-85
2024/03/03 06:35:55;;;;;;;35.13;20.92;;;;;;;;;;4914143;29;20067;-86
2024/03/03 06:38:40;;;;;;;36.50;22.55;;;;;;;;;;4914197;29;20031;-85
2024/03/03 06:41:25;;;;;;;38.42;21.17;;;;;;;;;;4917127;29;20036;-86
2024/03/03 06:44:16;;;;;;;40.92;23.02;;;;;;;;;;4919422;29;20027;-87
2024/03/03 06:47:06;;;;;;;40.17;22.55;;;;;;;;;;4913448;29;20122;-86
2024/03/03 06:49:54;;;;;;;38.45;22.13;;;;;;;;;;4919594;29;20110;-86
2024/03/03 06:52:39;;;;;;;37.17;20.63;;;;;;;;;;4955033;29;20031;-87
2024/03/03 06:55:43;;;;;;;35.97;20.92;;;;;;;;;;4951679;29;20502;-88
2024/03/03 06:58:29;;;;;;;39.60;22.85;;;;;;;;;;4919987;29;20031;-85
2024/03/03 07:01:14;;;;;;;38.30;22.30;;;;;;;;;;4920291;29;20062;-87
2024/03/03 07:04:19;;;;;;;36.03;21.30;;;;;;;;;;4918064;29;20408;-87
2024/03/03 07:07:12;;;;;;;43.05;21.02;;;;;;;;;;4921603;29;20086;-88
2024/03/03 07:09:57;;;;;;;34.27;19.93;;;;;;;;;;4919255;29;20424;-87
2024/03/03 07:12:42;;;;;;;36.22;21.83;;;;;;;;;;4906029;29;20063;-87
2024/03/03 07:15:28;;;;;;;38.38;21.25;;;;;;;;;;4915993;29;20054;-86
2024/03/03 07:18:16;;;;;;;35.83;22.45;;;;;;;;;;4919520;29;20083;-86
2024/03/03 07:21:05;;;;;;;32.30;20.27;;;;;;;;;;4904661;29;20063;-86
2024/03/03 07:27:06;;;;;;;37.33;21.05;;;;;;;;;;4929096;29;20423;-87
2024/03/03 07:29:51;;;;;;;33.50;20.92;;;;;;;;;;4917424;29;20510;-85
2024/03/03 07:32:39;;;;;;;30.15;19.38;;;;;;;;;;4931116;29;20439;-85
2024/03/03 07:35:25;;;;;;;32.88;20.13;;;;;;;;;;4917637;29;20131;-85
2024/03/03 07:38:11;;;;;;;34.60;20.13;;;;;;;;;;4917885;29;20028;-86
2024/03/03 07:40:56;;;;;;;34.67;20.95;;;;;;;;;;4925187;29;20020;-87
2024/03/03 07:43:42;;;;;;;37.83;21.17;;;;;;;;;;4918451;29;20103;-86
2024/03/03 07:46:35;;;;;;;31.50;20.63;;;;;;;;;;4917208;29;20042;-86
2024/03/03 07:49:20;;;;;;;30.27;20.13;;;;;;;;;;4910830;29;20024;-85
2024/03/03 07:52:05;;;;;;;31.92;20.95;;;;;;;;;;4928951;29;20045;-86
2024/03/03 07:54:51;;;;;;;34.88;20.23;;;;;;;;;;4929651;29;20020;-86
2024/03/03 07:57:36;;;;;;;35.28;20.65;;;;;;;;;;4928094;29;20034;-86
2024/03/03 08:00:21;;;;;;;35.20;22.30;;;;;;;;;;4916121;29;20031;-86
2024/03/03 08:03:09;;;;;;;36.60;22.85;;;;;;;;;;4916648;29;20137;-86
2024/03/03 08:05:55;;;;;;;35.90;21.67;;;;;;;;;;4929670;29;20028;-86
2024/03/03 08:08:41;;;;;;;33.83;21.70;;;;;;;;;;4901478;29;20152;-85
2024/03/03 08:11:27;;;;;;;31.63;20.75;;;;;;;;;;4916146;29;20114;-86
2024/03/03 08:14:12;;;;;;;35.58;23.25;;;;;;;;;;4915224;29;20020;-86
2024/03/03 08:16:57;;;;;;;35.03;21.55;;;;;;;;;;4929848;29;20074;-85
2024/03/03 08:19:42;;;;;;;37.28;22.88;;;;;;;;;;4915883;29;20450;-86
2024/03/03 08:22:28;;;;;;;34.25;21.67;;;;;;;;;;4916048;29;20034;-86
2024/03/03 08:25:13;;;;;;;31.70;20.30;;;;;;;;;;4929837;29;20391;-87
2024/03/03 08:28:02;;;;;;;32.92;20.40;;;;;;;;;;4905907;29;20059;-87
2024/03/03 08:30:47;;;;;;;33.33;21.17;;;;;;;;;;4915584;29;20039;-87
2024/03/03 08:33:33;;;;;;;33.03;21.23;;;;;;;;;;4916297;29;20134;-87
2024/03/03 08:36:18;;;;;;;36.10;21.30;;;;;;;;;;4929145;29;20023;-86
2024/03/03 08:39:04;;;;;;;40.58;22.75;;;;;;;;;;4915531;29;20027;-87
2024/03/03 08:41:49;;;;;;;31.05;19.88;;;;;;;;;;4915669;29;20122;-86
2024/03/03 08:44:34;;;;;;;34.42;21.65;;;;;;;;;;4911570;29;20030;-86
2024/03/03 08:47:19;;;;;;;34.33;21.17;;;;;;;;;;4921163;29;20027;-86
2024/03/03 08:50:05;;;;;;;30.17;18.88;;;;;;;;;;4933218;29;20090;-86
2024/03/03 08:52:50;;;;;;;31.73;20.63;;;;;;;;;;4897142;29;20039;-86
2024/03/03 08:55:35;;;;;;;32.40;20.27;;;;;;;;;;4883674;29;20032;-86
2024/03/03 08:58:21;;;;;;;33.53;21.25;;;;;;;;;;4897045;29;20039;-87
2024/03/03 09:01:10;;;;;;;30.10;18.98;;;;;;;;;;4915255;29;20510;-87
2024/03/03 09:03:56;;;;;;;28.65;19.17;;;;;;;;;;4914734;29;20447;-86
2024/03/03 09:06:41;;;;;;;30.65;19.40;;;;;;;;;;4915520;29;20024;-86
2024/03/03 09:09:27;;;;;;;27.73;17.88;;;;;;;;;;4915271;29;20034;-86
2024/03/03 09:12:12;;;;;;;33.00;19.05;;;;;;;;;;4896666;29;20451;-87
2024/03/03 09:14:57;;;;;;;32.65;21.42;;;;;;;;;;4913388;29;20095;-86
2024/03/03 09:17:44;;;;;;;33.72;19.67;;;;;;;;;;4909523;29;20067;-86
2024/03/03 09:20:30;;;;;;;30.30;19.67;;;;;;;;;;4927795;29;20031;-85
2024/03/03 09:23:18;;;;;;;29.90;19.58;;;;;;;;;;4896534;29;20055;-86
2024/03/03 09:26:03;;;;;;;33.92;20.85;;;;;;;;;;4917645;29;20047;-87
2024/03/03 09:28:49;;;;;;;30.85;19.67;;;;;;;;;;4915102;29;20078;-86
2024/03/03 09:31:40;;;;;;;28.88;19.17;;;;;;;;;;4914711;29;20035;-86
2024/03/03 09:34:25;;;;;;;29.25;20.63;;;;;;;;;;4913047;29;20548;-87
2024/03/03 09:37:14;;;;;;;31.98;22.13;;;;;;;;;;4915173;29;20023;-86
2024/03/03 09:39:59;;;;;;;33.47;21.43;;;;;;;;;;4914895;29;20098;-85
2024/03/03 09:42:45;;;;;;;32.92;22.95;;;;;;;;;;4914810;29;20035;-87
2024/03/03 09:45:30;;;;;;;31.70;19.75;;;;;;;;;;4926857;29;20019;-86
2024/03/03 09:48:16;;;;;;;35.20;20.88;;;;;;;;;;4946975;29;20387;-88
2024/03/03 09:51:01;;;;;;;33.42;21.05;;;;;;;;;;4927558;29;20023;-85
2024/03/03 09:53:47;;;;;;;31.08;20.80;;;;;;;;;;4923620;29;20027;-85
2024/03/03 09:56:32;;;;;;;31.05;19.83;;;;;;;;;;4941416;28;20031;-85
2024/03/03 09:59:18;;;;;;;29.13;18.13;;;;;;;;;;4911334;29;20597;-85
2024/03/03 10:02:05;;;;;;;29.98;19.52;;;;;;;;;;4923804;29;20707;-85
2024/03/03 10:04:52;;;;;;;30.52;19.48;;;;;;;;;;4915217;29;20387;-85
2024/03/03 10:07:45;;;;;;;29.38;20.42;;;;;;;;;;4916141;29;20027;-85
2024/03/03 10:10:33;;;;;;;28.73;18.83;;;;;;;;;;4928826;29;20781;-85
2024/03/03 10:13:20;;;;;;;30.27;19.63;;;;;;;;;;4928779;29;20121;-84
2024/03/03 10:16:06;;;;;;;30.08;19.55;;;;;;;;;;4917069;29;20031;-84
2024/03/03 10:18:59;;;;;;;29.30;18.33;;;;;;;;;;4918687;29;20027;-85
2024/03/03 10:21:46;;;;;;;29.23;20.58;;;;;;;;;;4917990;29;20386;-85
2024/03/03 10:24:32;;;;;;;30.23;20.23;;;;;;;;;;4918937;29;20111;-85
2024/03/03 10:27:18;;;;;;;26.40;18.33;;;;;;;;;;4917640;29;20506;-85
2024/03/03 10:30:04;;;;;;;23.33;16.65;;;;;;;;;;4918466;29;20050;-85
2024/03/03 10:32:50;;;;;;;25.55;17.90;;;;;;;;;;4918267;29;20459;-84
2024/03/03 10:35:35;;;;;;;26.58;18.20;;;;;;;;;;4918786;29;20047;-85
2024/03/03 10:38:20;;;;;;;28.65;19.13;;;;;;;;;;4918406;29;20308;-84
2024/03/03 10:41:05;;;;;;;28.58;18.95;;;;;;;;;;4918922;29;20039;-84
2024/03/03 10:43:50;;;;;;;27.45;19.27;;;;;;;;;;4929217;29;20079;-85
2024/03/03 10:46:45;;;;;;;25.27;18.05;;;;;;;;;;4936085;29;20104;-83
2024/03/03 10:49:30;;;;;;;25.10;18.23;;;;;;;;;;4933549;29;20098;-85
2024/03/03 10:52:17;;;;;;;25.80;17.50;;;;;;;;;;4920836;29;20027;-85
2024/03/03 10:55:04;;;;;;;24.45;17.75;;;;;;;;;;4934714;29;20038;-85
2024/03/03 10:57:50;;;;;;;29.40;19.48;;;;;;;;;;4930330;29;20031;-83
2024/03/03 11:00:36;;;;;;;28.58;18.95;;;;;;;;;;4925995;29;20038;-84
2024/03/03 11:03:20;;;;;;;26.17;17.98;;;;;;;;;;4929826;29;20104;-84
2024/03/03 11:06:08;;;;;;;24.20;16.90;;;;;;;;;;4923942;29;20111;-84
2024/03/03 11:08:54;;;;;;;24.35;16.95;;;;;;;;;;4935707;29;20016;-85
2024/03/03 11:11:45;;;;;;;25.30;16.98;;;;;;;;;;4921661;29;20027;-84
2024/03/03 11:14:41;;;;;;;26.67;18.88;;;;;;;;;;4929029;29;20382;-84
2024/03/03 11:17:27;;;;;;;24.30;15.13;;;;;;;;;;4946015;29;20024;-84
2024/03/03 11:20:17;;;;;;;23.70;15.13;;;;;;;;;;4931012;29;20039;-84
2024/03/03 11:23:08;;;;;;;24.52;16.45;;;;;;;;;;4937476;29;20031;-84
2024/03/03 11:25:59;;;;;;;25.73;17.02;;;;;;;;;;4920466;29;20391;-83
2024/03/03 11:28:48;;;;;;;22.02;14.30;;;;;;;;;;4934377;29;20015;-83
2024/03/03 11:31:36;;;;;;;22.52;14.88;;;;;;;;;;4924693;29;20039;-85
2024/03/03 11:34:25;;;;;;;23.95;15.27;;;;;;;;;;4918537;29;20503;-86
2024/03/03 11:37:11;;;;;;;23.35;14.95;;;;;;;;;;4919560;29;20482;-82
2024/03/03 11:39:58;;;;;;;20.63;13.77;;;;;;;;;;4917847;29;20063;-83
2024/03/03 11:42:46;;;;;;;20.33;13.60;;;;;;;;;;4917744;29;20039;-83
2024/03/03 11:45:41;;;;;;;20.48;13.85;;;;;;;;;;4913438;29;20075;-82
2024/03/03 11:48:27;;;;;;;19.33;13.60;;;;;;;;;;4917218;29;20047;-82
2024/03/03 11:51:22;;;;;;;21.95;14.07;;;;;;;;;;4916563;29;20345;-82
2024/03/03 11:54:07;;;;;;;20.55;12.13;;;;;;;;;;4930678;29;20364;-82
2024/03/03 11:56:52;;;;;;;20.20;13.40;;;;;;;;;;4917028;29;20032;-82
2024/03/03 11:59:38;;;;;;;17.70;12.70;;;;;;;;;;4916304;29;20483;-83
2024/03/03 12:02:24;;;;;;;15.88;10.90;;;;;;;;;;4916971;29;20421;-86
2024/03/03 12:05:10;;;;;;;19.38;12.30;;;;;;;;;;4916442;29;20026;-84
2024/03/03 12:07:56;;;;;;;19.00;11.60;;;;;;;;;;4923551;29;20055;-86
2024/03/03 12:10:41;;;;;;;15.60;10.73;;;;;;;;;;4930931;29;20452;-87
2024/03/03 12:13:26;;;;;;;16.77;11.20;;;;;;;;;;4916544;29;20482;-86
2024/03/03 12:16:12;;;;;;;18.33;11.43;;;;;;;;;;4916168;29;20095;-83
2024/03/03 12:19:00;;;;;;;21.73;10.38;;;;;;;;;;4916196;29;20028;-86
2024/03/03 12:21:46;;;;;;;17.13;11.27;;;;;;;;;;4916231;29;20492;-84
2024/03/03 12:24:34;;;;;;;15.40;10.63;;;;;;;;;;4914276;29;20092;-84
2024/03/03 12:27:23;;;;;;;15.82;9.75;;;;;;;;;;4897303;29;20032;-84
2024/03/03 12:30:13;;;;;;;16.27;10.23;;;;;;;;;;4897600;29;20396;-85
2024/03/03 12:33:00;;;;;;;14.88;9.60;;;;;;;;;;4922248;29;20063;-85
2024/03/03 12:35:46;;;;;;;12.88;7.95;;;;;;;;;;4916051;29;20554;-85
2024/03/03 12:38:31;;;;;;;12.38;8.25;;;;;;;;;;4916270;29;20059;-84
2024/03/03 12:41:17;;;;;;;13.30;8.48;;;;;;;;;;4907214;29;20484;-85
2024/03/03 12:44:02;;;;;;;13.75;8.00;;;;;;;;;;4912847;29;20046;-85
2024/03/03 12:46:49;;;;;;;13.95;8.80;;;;;;;;;;4912712;29;20078;-84
2024/03/03 12:49:38;;;;;;;13.30;8.25;;;;;;;;;;4915501;29;20023;-85
2024/03/03 12:52:23;;;;;;;14.93;8.27;;;;;;;;;;4932939;29;20075;-86
2024/03/03 12:55:12;;;;;;;13.48;8.48;;;;;;;;;;4917629;29;20038;-85
2024/03/03 12:57:57;;;;;;;12.52;9.13;;;;;;;;;;4923614;29;20535;-84
2024/03/03 13:00:49;;;;;;;10.57;7.15;;;;;;;;;;4896719;29;20365;-85
2024/03/03 13:03:37;;;;;;;11.35;6.63;;;;;;;;;;4911659;29;20023;-85
2024/03/03 13:06:23;;;;;;;12.57;8.10;;;;;;;;;;4915067;29;20137;-85
2024/03/03 13:09:12;;;;;;;12.02;7.20;;;;;;;;;;4915198;29;20071;-85
2024/03/03 13:11:57;;;;;;;;;;;;;;;;;;4928856;29;20483;-86
2024/03/03 13:14:43;;;;;;;12.45;7.10;;;;;;;;;;4907409;29;19978;-85
2024/03/03 13:17:32;;;;;;;11.15;6.68;;;;;;;;;;4896908;29;20115;-85
2024/03/03 13:20:26;;;;;;;11.77;6.85;;;;;;;;;;4901928;29;20050;-85
2024/03/03 13:23:11;;;;;;;14.30;7.40;;;;;;;;;;4916328;29;20039;-84
2024/03/03 13:25:57;;;;;;;11.35;7.00;;;;;;;;;;4915085;29;20126;-88
2024/03/03 13:28:42;;;;;;;9.98;5.95;;;;;;;;;;4914872;29;20479;-86
2024/03/03 13:31:28;;;;;;;14.95;7.47;;;;;;;;;;4914037;29;20031;-86
2024/03/03 13:34:13;;;;;;;10.80;5.57;;;;;;;;;;4914952;29;20047;-85
2024/03/03 13:36:58;;;;;;;9.52;6.15;;;;;;;;;;4927655;29;20639;-85
2024/03/03 13:39:44;;;;;;;6.47;3.90;;;;;;;;;;4916611;29;20023;-84
2024/03/03 13:42:29;;;;;;;8.40;5.30;;;;;;;;;;4911682;29;20391;-85
2024/03/03 13:45:14;;;;;;;7.00;4.43;;;;;;;;;;4917917;29;20039;-85
2024/03/03 13:48:04;;;;;;;8.88;4.93;;;;;;;;;;4921910;29;20024;-85
2024/03/03 13:50:50;;;;;;;6.90;4.00;;;;;;;;;;4924337;29;20028;-84
2024/03/03 13:53:35;;;;;;;5.35;3.30;;;;;;;;;;4913757;29;20043;-82
2024/03/03 13:56:23;;;;;;;5.45;3.70;;;;;;;;;;4914896;29;20035;-83
2024/03/03 13:59:12;;;;;;;6.78;3.53;;;;;;;;;;4914469;29;20035;-83
2024/03/03 14:01:57;;;;;;;9.30;3.60;;;;;;;;;;4914831;29;20464;-83
2024/03/03 14:04:42;;;;;;;5.22;2.97;;;;;;;;;;4915246;29;20530;-82
2024/03/03 14:07:28;;;;;;;3.30;2.28;;;;;;;;;;4913765;29;20031;-83
2024/03/03 14:10:14;;;;;;;4.72;2.90;;;;;;;;;;4928359;29;20517;-85
2024/03/03 14:13:03;;;;;;;4.43;2.40;;;;;;;;;;4911727;29;20070;-90
2024/03/03 14:15:48;;;;;;;4.45;2.50;;;;;;;;;;4913333;29;20036;-90
2024/03/03 14:18:34;;;;;;;3.53;1.90;;;;;;;;;;4912563;29;20382;-90
2024/03/03 14:21:22;;;;;;;8.73;2.28;;;;;;;;;;4914217;29;20410;-90
2024/03/03 14:24:07;;;;;;;3.33;1.80;;;;;;;;;;4913533;29;20440;-88
2024/03/03 14:26:53;;;;;;;3.13;1.98;;;;;;;;;;4900542;29;20030;-88
2024/03/03 14:29:38;;;;;;;7.65;2.53;;;;;;;;;;4912851;29;20024;-88
2024/03/03 14:32:23;;;;;;;3.95;2.25;;;;;;;;;;4914010;29;20253;-89
2024/03/03 14:35:09;;;;;;;2.38;1.30;;;;;;;;;;4914147;29;20519;-88
2024/03/03 14:37:54;;;;;;;2.85;1.48;;;;;;;;;;4926324;29;20110;-87
2024/03/03 14:40:41;;;;;;;3.38;1.60;;;;;;;;;;4913760;29;20322;-86
2024/03/03 14:43:27;;;;;;;2.70;1.50;;;;;;;;;;4913585;29;20463;-87
2024/03/03 14:46:12;;;;;;;2.95;1.88;;;;;;;;;;4912765;29;20060;-87
2024/03/03 14:48:58;;;;;;;1.88;1.33;;;;;;;;;;4914584;29;20383;-88
2024/03/03 14:51:43;;;;;;;2.13;1.55;;;;;;;;;;4914365;29;20090;-87
2024/03/03 14:54:29;;;;;;;2.17;1.30;;;;;;;;;;4896682;29;20028;-85
2024/03/03 14:57:14;;;;;;;1.95;1.48;;;;;;;;;;4913992;29;20024;-87
2024/03/03 15:00:04;;;;;;;3.22;1.50;;;;;;;;;;4913077;29;20163;-87
2024/03/03 15:02:50;;;;;;;2.72;1.75;;;;;;;;;;4916835;29;20509;-87
2024/03/03 15:05:35;;;;;;;2.58;1.77;;;;;;;;;;4930202;29;20031;-87
2024/03/03 15:08:21;;;;;;;4.03;1.50;;;;;;;;;;4916916;29;20030;-87
2024/03/03 15:11:06;;;;;;;2.42;1.30;;;;;;;;;;4916828;29;20423;-86
2024/03/03 15:13:51;;;;;;;3.72;2.10;;;;;;;;;;4917198;29;20475;-86
2024/03/03 15:16:37;;;;;;;3.95;1.10;;;;;;;;;;4912211;29;20032;-87
2024/03/03 15:19:22;;;;;;;1.92;1.13;;;;;;;;;;4916867;29;20118;-87
2024/03/03 15:22:08;;;;;;;1.30;1.10;;;;;;;;;;4930513;29;20393;-88
2024/03/03 15:24:53;;;;;;;1.27;1.17;;;;;;;;;;4917661;29;20023;-89
2024/03/03 15:27:38;;;;;;;1.73;1.15;;;;;;;;;;4917325;29;20111;-89
2024/03/03 15:30:24;;;;;;;3.92;1.05;;;;;;;;;;4917214;29;20110;-89
2024/03/03 15:33:09;;;;;;;2.15;1.20;;;;;;;;;;4913845;29;20082;-87
2024/03/03 15:35:57;;;;;;;2.25;1.10;;;;;;;;;;4917120;29;20074;-89
2024/03/03 15:38:44;;;;;;;1.02;0.80;;;;;;;;;;4916194;29;20030;-89
2024/03/03 15:41:29;;;;;;;2.40;1.23;;;;;;;;;;4913022;29;20028;-89
2024/03/03 15:44:15;;;;;;;1.00;0.90;;;;;;;;;;4917338;29;20403;-87
2024/03/03 15:47:00;;;;;;;4.28;0.90;;;;;;;;;;4920699;29;20023;-86
2024/03/03 15:49:46;;;;;;;1.75;1.20;;;;;;;;;;4929793;29;20032;-87
2024/03/03 15:52:33;;;;;;;3.85;1.00;;;;;;;;;;4912711;29;20024;-86
2024/03/03 15:55:19;;;;;;;2.25;1.10;;;;;;;;;;4910710;29;20099;-85
2024/03/03 15:58:04;;;;;;;5.57;1.77;;;;;;;;;;4896496;29;20361;-85
2024/03/03 16:00:50;;;;;;;3.00;1.60;;;;;;;;;;4912682;29;20028;-86
2024/03/03 16:03:35;;;;;;;5.90;2.22;;;;;;;;;;4917360;29;20123;-88
2024/03/03 16:06:20;;;;;;;2.45;1.35;;;;;;;;;;4915647;29;20024;-89
2024/03/03 16:09:06;;;;;;;3.53;1.27;;;;;;;;;;4930487;29;20399;-88
2024/03/03 16:11:51;;;;;;;2.67;1.02;;;;;;;;;;4916019;29;20066;-88
2024/03/03 16:14:37;;;;;;;6.88;1.60;;;;;;;;;;4916155;29;20400;-88
2024/03/03 16:17:22;;;;;;;2.50;1.50;;;;;;;;;;4917019;29;20490;-89